createdAt,value
2019-01-26T00:02:55.971Z,-1.68
2019-01-26T00:07:00.436Z,-1.67
2019-01-26T00:11:05.423Z,-1.68
2019-01-26T00:15:10.172Z,-1.69
2019-01-26T00:19:15.106Z,-1.72
2019-01-26T00:40:26.766Z,-1.81
2019-01-26T01:09:56.822Z,-2.04
2019-01-26T02:03:23.476Z,-1.96
2019-01-26T02:07:28.012Z,-1.95
2019-01-26T02:28:47.242Z,-1.90
2019-01-26T03:00:31.414Z,-1.80
2019-01-26T03:13:10.378Z,-1.69
2019-01-26T03:26:11.495Z,-1.58
2019-01-26T03:43:01.528Z,-1.46
2019-01-26T03:51:20.964Z,-1.40
2019-01-26T03:55:28.507Z,-1.43
2019-01-26T03:59:33.105Z,-1.47
2019-01-26T04:03:37.656Z,-1.47
2019-01-26T04:08:14.047Z,-1.38
2019-01-26T04:12:18.467Z,-1.24
2019-01-26T04:16:22.887Z,-1.08
2019-01-26T04:20:27.252Z,-0.98
2019-01-26T04:24:44.050Z,-0.90
2019-01-26T04:28:48.707Z,-0.83
2019-01-26T04:41:21.229Z,-0.71
2019-01-26T04:45:25.675Z,-0.65
2019-01-26T04:49:30.263Z,-0.63
2019-01-26T04:53:34.469Z,-0.57
2019-01-26T04:57:39.012Z,-0.52
2019-01-26T05:01:44.121Z,-0.46
2019-01-26T05:05:48.528Z,-0.43
2019-01-26T05:09:52.723Z,-0.34
2019-01-26T05:13:57.141Z,-0.26
2019-01-26T05:18:01.384Z,-0.18
2019-01-26T05:22:05.774Z,-0.11
2019-01-26T05:26:09.976Z,-0.06
2019-01-26T05:30:17.133Z,-0.03
2019-01-26T05:34:21.359Z,0.02
2019-01-26T05:38:25.505Z,0.05
2019-01-26T05:42:29.732Z,0.06
2019-01-26T05:46:33.914Z,0.09
2019-01-26T05:50:38.086Z,0.10
2019-01-26T05:54:42.211Z,0.14
2019-01-26T05:58:46.396Z,0.17
2019-01-26T06:02:50.879Z,0.20
2019-01-26T06:06:55.134Z,0.24
2019-01-26T06:10:59.736Z,0.28
2019-01-26T06:15:13.120Z,0.32
2019-01-26T06:19:17.265Z,0.39
2019-01-26T06:23:21.443Z,0.44
2019-01-26T06:27:30.492Z,0.48
2019-01-26T06:31:34.780Z,0.51
2019-01-26T06:35:38.913Z,0.54
2019-01-26T06:39:43.133Z,0.56
2019-01-26T06:43:47.319Z,0.59
2019-01-26T06:47:51.493Z,0.60
2019-01-26T06:51:55.654Z,0.63
2019-01-26T06:55:59.856Z,0.70
2019-01-26T07:00:05.022Z,0.71
2019-01-26T07:04:11.324Z,0.75
2019-01-26T07:08:20.378Z,0.82
2019-01-26T07:12:24.509Z,0.90
2019-01-26T07:16:28.736Z,0.96
2019-01-26T07:20:33.022Z,1.02
2019-01-26T07:24:37.213Z,1.09
2019-01-26T07:28:41.508Z,1.19
2019-01-26T07:32:45.748Z,1.26
2019-01-26T07:36:49.919Z,1.33
2019-01-26T07:40:54.113Z,1.40
2019-01-26T07:44:58.261Z,1.45
2019-01-26T07:49:02.715Z,1.46
2019-01-26T07:53:06.880Z,1.50
2019-01-26T07:57:11.134Z,1.56
2019-01-26T08:01:15.325Z,1.61
2019-01-26T08:05:19.620Z,1.63
2019-01-26T08:09:23.788Z,1.68
2019-01-26T08:13:27.969Z,1.71
2019-01-26T08:17:32.300Z,1.72
2019-01-26T08:21:36.503Z,1.76
2019-01-26T08:25:40.646Z,1.76
2019-01-26T08:34:48.021Z,1.81
2019-01-26T08:38:52.235Z,1.79
2019-01-26T08:42:56.492Z,1.82
2019-01-26T08:47:00.636Z,1.82
2019-01-26T08:51:04.898Z,1.84
2019-01-26T08:55:09.823Z,1.85
2019-01-26T08:59:13.978Z,1.82
2019-01-26T09:03:28.017Z,1.81
2019-01-26T09:07:32.243Z,1.80
2019-01-26T09:11:36.406Z,1.77
2019-01-26T09:15:40.614Z,1.77
2019-01-26T09:19:44.797Z,1.79
2019-01-26T09:23:48.940Z,1.81
2019-01-26T09:27:53.417Z,1.85
2019-01-26T09:31:57.579Z,1.90
2019-01-26T09:36:02.236Z,1.91
2019-01-26T09:40:06.950Z,1.93
2019-01-26T09:44:11.080Z,1.97
2019-01-26T09:48:15.259Z,2.02
2019-01-26T09:52:19.435Z,2.09
2019-01-26T09:56:23.574Z,2.12
2019-01-26T10:00:27.769Z,2.16
2019-01-26T10:04:31.946Z,2.18
2019-01-26T10:08:36.150Z,2.23
2019-01-26T10:12:51.189Z,2.33
2019-01-26T10:16:51.533Z,2.41
2019-01-26T10:20:55.902Z,2.51
2019-01-26T10:25:03.318Z,2.61
2019-01-26T10:29:07.980Z,2.69
2019-01-26T10:33:12.144Z,2.75
2019-01-26T10:37:23.113Z,2.80
2019-01-26T10:41:44.611Z,2.89
2019-01-26T10:45:48.768Z,2.95
2019-01-26T10:49:53.237Z,3.05
2019-01-26T10:53:57.437Z,3.12
2019-01-26T10:58:01.576Z,3.18
2019-01-26T11:02:06.865Z,3.24
2019-01-26T11:06:11.013Z,3.32
2019-01-26T11:10:15.817Z,3.38
2019-01-26T11:14:19.944Z,3.42
2019-01-26T11:18:24.147Z,3.49
2019-01-26T11:22:28.321Z,3.56
2019-01-26T11:26:32.525Z,3.61
2019-01-26T11:30:37.489Z,3.66
2019-01-26T11:34:41.647Z,3.72
2019-01-26T11:38:45.833Z,3.73
2019-01-26T11:42:50.039Z,3.76
2019-01-26T11:47:02.714Z,3.82
2019-01-26T11:51:25.826Z,3.86
2019-01-26T11:55:35.542Z,3.92
2019-01-26T11:59:41.358Z,4.00
2019-01-26T12:04:04.454Z,3.97
2019-01-26T12:08:08.626Z,4.00
2019-01-26T12:12:12.958Z,3.99
2019-01-26T12:16:17.137Z,4.02
2019-01-26T12:20:21.319Z,4.04
2019-01-26T12:24:25.515Z,4.08
2019-01-26T12:28:29.710Z,4.08
2019-01-26T12:32:34.013Z,4.08
2019-01-26T12:36:38.170Z,4.07
2019-01-26T12:40:42.360Z,4.06
2019-01-26T12:44:46.533Z,4.08
2019-01-26T12:48:50.797Z,4.08
2019-01-26T12:52:54.977Z,4.10
2019-01-26T12:56:59.129Z,4.09
2019-01-26T13:01:03.273Z,4.09
2019-01-26T13:05:07.876Z,4.05
2019-01-26T13:09:12.238Z,4.00
2019-01-26T13:13:16.636Z,3.99
2019-01-26T13:17:20.819Z,3.98
2019-01-26T13:21:24.997Z,4.00
2019-01-26T13:25:29.195Z,4.01
2019-01-26T13:29:33.392Z,3.99
2019-01-26T13:33:37.632Z,3.96
2019-01-26T13:37:41.758Z,3.93
2019-01-26T13:41:45.964Z,3.92
2019-01-26T13:45:51.098Z,3.91
2019-01-26T13:49:55.293Z,3.90
2019-01-26T13:53:59.459Z,3.90
2019-01-26T13:58:03.644Z,3.87
2019-01-26T14:02:08.044Z,3.88
2019-01-26T14:06:12.277Z,3.88
2019-01-26T14:10:16.705Z,3.88
2019-01-26T14:14:20.839Z,3.86
2019-01-26T14:18:25.286Z,3.85
2019-01-26T14:22:29.767Z,3.86
2019-01-26T14:26:33.968Z,3.87
2019-01-26T14:30:44.172Z,3.87
2019-01-26T14:34:48.331Z,3.89
2019-01-26T14:38:52.467Z,3.92
2019-01-26T14:42:56.679Z,3.89
2019-01-26T14:47:00.989Z,3.92
2019-01-26T14:51:05.499Z,3.92
2019-01-26T14:55:12.549Z,3.92
2019-01-26T14:59:16.743Z,3.94
2019-01-26T15:03:22.837Z,3.94
2019-01-26T15:07:26.980Z,3.95
2019-01-26T15:11:31.142Z,3.96
2019-01-26T15:15:35.503Z,4.00
2019-01-26T15:19:39.747Z,4.06
2019-01-26T15:23:43.907Z,4.11
2019-01-26T15:27:48.079Z,4.15
2019-01-26T15:31:52.261Z,4.15
2019-01-26T15:35:56.465Z,4.18
2019-01-26T15:40:00.586Z,4.18
2019-01-26T15:44:05.027Z,4.19
2019-01-26T15:48:09.400Z,4.23
2019-01-26T15:52:14.897Z,4.25
2019-01-26T15:56:19.639Z,4.28
2019-01-26T16:00:29.421Z,4.30
2019-01-26T16:04:33.937Z,4.34
2019-01-26T16:08:39.295Z,4.36
2019-01-26T16:17:52.516Z,4.41
2019-01-26T16:22:10.982Z,4.45
2019-01-26T16:26:18.517Z,4.48
2019-01-26T16:30:25.805Z,4.49
2019-01-26T16:34:30.088Z,4.50
2019-01-26T16:38:36.351Z,4.51
2019-01-26T16:42:40.682Z,4.56
2019-01-26T16:46:46.476Z,4.56
2019-01-26T16:50:51.387Z,4.59
2019-01-26T16:54:55.877Z,4.59
2019-01-26T16:59:00.458Z,4.60
2019-01-26T17:03:04.839Z,4.63
2019-01-26T17:07:09.123Z,4.63
2019-01-26T17:11:13.864Z,4.66
2019-01-26T17:15:19.371Z,4.66
2019-01-26T17:19:23.652Z,4.69
2019-01-26T17:23:28.142Z,4.71
2019-01-26T17:27:32.661Z,4.73
2019-01-26T17:31:38.920Z,4.75
2019-01-26T17:35:43.497Z,4.75
2019-01-26T17:39:47.968Z,4.77
2019-01-26T17:43:56.764Z,4.79
2019-01-26T17:48:01.123Z,4.81
2019-01-26T17:52:05.510Z,4.85
2019-01-26T17:56:09.672Z,4.88
2019-01-26T18:00:24.769Z,4.89
2019-01-26T18:04:28.937Z,4.89
2019-01-26T18:08:33.231Z,4.93
2019-01-26T18:12:37.382Z,4.97
2019-01-26T18:16:41.541Z,5.00
2019-01-26T18:20:49.235Z,5.03
2019-01-26T18:24:52.507Z,5.04
2019-01-26T18:28:57.218Z,5.05
2019-01-26T18:33:01.421Z,5.05
2019-01-26T18:37:05.737Z,5.07
2019-01-26T18:41:09.942Z,5.10
2019-01-26T18:45:15.418Z,5.16
2019-01-26T18:49:19.603Z,5.18
2019-01-26T18:53:23.902Z,5.20
2019-01-26T18:57:28.088Z,5.18
2019-01-26T19:01:32.327Z,5.21
2019-01-26T19:05:36.563Z,5.22
2019-01-26T19:09:40.731Z,5.21
2019-01-26T19:13:45.043Z,5.22
2019-01-26T19:17:49.208Z,5.25
2019-01-26T19:21:54.405Z,5.27
2019-01-26T19:25:58.616Z,5.27
2019-01-26T19:30:02.812Z,5.26
2019-01-26T19:34:08.274Z,5.25
2019-01-26T19:38:12.628Z,5.25
2019-01-26T19:42:16.986Z,5.29
2019-01-26T19:46:21.359Z,5.27
2019-01-26T19:50:27.686Z,5.27
2019-01-26T19:54:32.006Z,5.26
2019-01-26T19:58:36.207Z,5.24
2019-01-26T20:02:40.330Z,5.24
2019-01-26T20:06:44.618Z,5.23
2019-01-26T20:10:49.755Z,5.23
2019-01-26T20:14:53.924Z,5.23
2019-01-26T20:18:58.117Z,5.25
2019-01-26T20:23:02.329Z,5.28
2019-01-26T20:27:06.499Z,5.28
2019-01-26T20:31:10.633Z,5.30
2019-01-26T20:35:14.829Z,5.30
2019-01-26T20:39:18.970Z,5.31
2019-01-26T20:43:23.333Z,5.31
2019-01-26T20:47:27.437Z,5.33
2019-01-26T20:51:31.609Z,5.38
2019-01-26T20:55:35.993Z,5.39
2019-01-26T20:59:40.269Z,5.40
2019-01-26T21:03:44.533Z,5.42
2019-01-26T21:07:49.738Z,5.44
2019-01-26T21:11:53.988Z,5.46
2019-01-26T21:15:58.464Z,5.48
2019-01-26T21:20:04.090Z,5.48
2019-01-26T21:24:08.354Z,5.50
2019-01-26T21:28:12.528Z,5.51
2019-01-26T21:32:16.965Z,5.55
2019-01-26T21:36:21.172Z,5.57
2019-01-26T21:40:27.474Z,5.56
2019-01-26T21:44:31.783Z,5.55
2019-01-26T21:48:35.955Z,5.58
2019-01-26T21:52:41.307Z,5.61
2019-01-26T21:56:45.474Z,5.64
2019-01-26T22:00:49.695Z,5.68
2019-01-26T22:04:53.858Z,5.71
2019-01-26T22:08:58.034Z,5.72
2019-01-26T22:13:02.168Z,5.76
2019-01-26T22:17:06.336Z,5.79
2019-01-26T22:21:10.568Z,5.82
2019-01-26T22:25:15.131Z,5.88
2019-01-26T22:29:19.319Z,5.89
2019-01-26T22:33:24.487Z,5.94
2019-01-26T22:37:28.660Z,5.94
2019-01-26T22:41:32.878Z,5.99
2019-01-26T22:45:37.067Z,6.02
2019-01-26T22:49:41.330Z,6.07
2019-01-26T22:53:45.282Z,6.08
2019-01-26T22:57:49.701Z,6.08
2019-01-26T23:01:54.433Z,6.07
2019-01-26T23:06:44.933Z,6.10
2019-01-26T23:11:14.919Z,6.12
2019-01-26T23:15:58.185Z,6.14
2019-01-26T23:20:37.066Z,6.15
2019-01-26T23:24:52.563Z,6.22
2019-01-26T23:29:17.910Z,6.24
2019-01-26T23:33:28.195Z,6.27
2019-01-26T23:37:32.369Z,6.32
2019-01-26T23:41:36.547Z,6.34
2019-01-26T23:45:40.746Z,6.36
2019-01-26T23:49:44.926Z,6.40
2019-01-26T23:53:49.174Z,6.41
2019-01-26T23:57:53.362Z,6.45
